createdAt,value
2017-06-22T00:00:34.209Z,0
2017-06-22T00:01:34.205Z,0
2017-06-22T00:02:34.207Z,0
2017-06-22T00:03:34.205Z,0
2017-06-22T00:04:34.158Z,0
2017-06-22T00:05:34.249Z,0
2017-06-22T00:06:34.148Z,0
2017-06-22T00:07:34.230Z,0
2017-06-22T00:08:34.242Z,0
2017-06-22T00:09:34.240Z,0
2017-06-22T00:10:34.163Z,0
2017-06-22T00:11:34.248Z,0
2017-06-22T00:12:34.237Z,0
2017-06-22T00:13:34.164Z,0
2017-06-22T00:14:34.241Z,0
2017-06-22T00:15:34.248Z,0
2017-06-22T00:16:34.254Z,0
2017-06-22T00:17:34.238Z,0
2017-06-22T00:18:34.161Z,0
2017-06-22T00:19:34.167Z,0
2017-06-22T00:20:34.158Z,0
2017-06-22T00:21:34.248Z,0
2017-06-22T00:22:34.232Z,0
2017-06-22T00:23:34.161Z,0
2017-06-22T00:24:34.246Z,0
2017-06-22T00:25:34.250Z,0
2017-06-22T00:26:34.253Z,0
2017-06-22T00:27:34.219Z,0
2017-06-22T00:28:34.173Z,0
2017-06-22T00:29:34.216Z,0
2017-06-22T00:30:34.167Z,0
2017-06-22T00:31:34.173Z,0
2017-06-22T00:32:34.246Z,0
2017-06-22T00:33:34.251Z,0
2017-06-22T00:34:34.249Z,0
2017-06-22T00:35:34.171Z,0
2017-06-22T00:36:34.174Z,0
2017-06-22T00:37:34.267Z,0
2017-06-22T00:38:34.262Z,0
2017-06-22T00:39:34.256Z,0
2017-06-22T00:40:34.255Z,0
2017-06-22T00:41:34.174Z,0
2017-06-22T00:42:34.223Z,0
2017-06-22T00:43:34.242Z,0
2017-06-22T00:44:34.257Z,0
2017-06-22T00:45:34.242Z,0
2017-06-22T00:46:34.181Z,0
2017-06-22T00:47:34.252Z,0
2017-06-22T00:48:34.268Z,0
2017-06-22T00:49:34.256Z,0
2017-06-22T00:50:34.222Z,0
2017-06-22T00:51:34.354Z,0
2017-06-22T00:52:34.184Z,0
2017-06-22T00:53:34.186Z,0
2017-06-22T00:54:34.177Z,0
2017-06-22T00:55:34.250Z,0
2017-06-22T00:56:34.252Z,0
2017-06-22T00:57:34.249Z,0
2017-06-22T00:58:34.249Z,0
2017-06-22T00:59:34.253Z,0
2017-06-22T01:00:34.252Z,0
2017-06-22T01:01:34.252Z,0
2017-06-22T01:02:34.250Z,0
2017-06-22T01:03:34.249Z,0
2017-06-22T01:04:34.254Z,0
2017-06-22T01:05:34.271Z,0
2017-06-22T01:06:34.190Z,0
2017-06-22T01:07:34.206Z,0
2017-06-22T01:08:34.265Z,0
2017-06-22T01:09:34.267Z,0
2017-06-22T01:10:34.280Z,0
2017-06-22T01:11:34.268Z,0
2017-06-22T01:12:34.286Z,0
2017-06-22T01:13:34.259Z,0
2017-06-22T01:14:34.284Z,0
2017-06-22T01:15:34.247Z,0
2017-06-22T01:16:34.282Z,0
2017-06-22T01:17:34.283Z,0
2017-06-22T01:18:34.249Z,0
2017-06-22T01:19:34.267Z,0
2017-06-22T01:20:34.285Z,0
2017-06-22T01:21:34.201Z,0
2017-06-22T01:22:34.250Z,0
2017-06-22T01:23:34.273Z,0
2017-06-22T01:24:34.267Z,0
2017-06-22T01:25:34.252Z,0
2017-06-22T01:26:34.215Z,0
2017-06-22T01:27:34.201Z,0
2017-06-22T01:28:34.258Z,0
2017-06-22T01:29:34.250Z,0
2017-06-22T01:30:34.206Z,0
2017-06-22T01:31:34.277Z,0
2017-06-22T01:32:34.203Z,0
2017-06-22T01:33:34.287Z,0
2017-06-22T01:34:34.252Z,0
2017-06-22T01:35:34.390Z,0
2017-06-22T01:36:34.276Z,0
2017-06-22T01:37:34.204Z,0
2017-06-22T01:38:34.287Z,0
2017-06-22T01:39:34.295Z,0
2017-06-22T01:40:34.206Z,0
2017-06-22T01:41:34.296Z,0
2017-06-22T01:42:34.481Z,0
2017-06-22T01:43:34.223Z,0
2017-06-22T01:44:34.279Z,0
2017-06-22T01:45:34.266Z,0
2017-06-22T01:46:34.276Z,0
2017-06-22T01:47:34.296Z,0
2017-06-22T01:48:34.260Z,0
2017-06-22T01:49:34.214Z,0
2017-06-22T01:50:34.300Z,0
2017-06-22T01:51:34.262Z,0
2017-06-22T01:52:34.259Z,0
2017-06-22T01:53:34.303Z,0
2017-06-22T01:54:34.304Z,0
2017-06-22T01:55:34.283Z,0
2017-06-22T01:56:34.282Z,0
2017-06-22T01:57:34.282Z,0
2017-06-22T01:58:34.213Z,0
2017-06-22T01:59:34.283Z,0
2017-06-22T02:00:34.284Z,0
2017-06-22T02:01:34.284Z,0
2017-06-22T02:02:34.298Z,0
2017-06-22T02:03:34.288Z,0
2017-06-22T02:04:34.300Z,0
2017-06-22T02:05:34.294Z,0
2017-06-22T02:06:34.286Z,0
2017-06-22T02:07:34.286Z,0
2017-06-22T02:08:34.288Z,0
2017-06-22T02:09:34.284Z,0
2017-06-22T02:10:34.292Z,0
2017-06-22T02:11:34.291Z,0
2017-06-22T02:12:34.203Z,4
2017-06-22T02:13:34.289Z,4
2017-06-22T02:14:34.290Z,4
2017-06-22T02:15:34.288Z,4
2017-06-22T02:16:34.291Z,0
2017-06-22T02:17:34.295Z,4
2017-06-22T02:18:34.290Z,4
2017-06-22T02:19:34.292Z,4
2017-06-22T02:20:34.376Z,4
2017-06-22T02:21:34.295Z,8
2017-06-22T02:22:34.296Z,4
2017-06-22T02:23:34.269Z,8
2017-06-22T02:24:34.293Z,8
2017-06-22T02:25:34.280Z,8
2017-06-22T02:26:34.304Z,12
2017-06-22T02:27:34.324Z,12
2017-06-22T02:28:34.311Z,12
2017-06-22T02:29:34.294Z,16
2017-06-22T02:30:34.288Z,16
2017-06-22T02:31:34.288Z,16
2017-06-22T02:32:34.324Z,24
2017-06-22T02:33:34.324Z,28
2017-06-22T02:34:34.243Z,28
2017-06-22T02:35:34.291Z,28
2017-06-22T02:36:34.302Z,36
2017-06-22T02:37:34.346Z,40
2017-06-22T02:38:34.391Z,44
2017-06-22T02:39:34.303Z,52
2017-06-22T02:40:34.317Z,60
2017-06-22T02:41:34.347Z,68
2017-06-22T02:42:34.323Z,76
2017-06-22T02:43:34.331Z,88
2017-06-22T02:44:34.289Z,96
2017-06-22T02:45:34.397Z,108
2017-06-22T02:46:34.296Z,124
2017-06-22T02:47:34.296Z,136
2017-06-22T02:48:34.302Z,152
2017-06-22T02:49:34.296Z,168
2017-06-22T02:50:34.298Z,188
2017-06-22T02:51:34.304Z,208
2017-06-22T02:52:34.301Z,232
2017-06-22T02:53:34.302Z,256
2017-06-22T02:54:34.301Z,276
2017-06-22T02:55:34.243Z,304
2017-06-22T02:56:34.334Z,332
2017-06-22T02:57:34.327Z,356
2017-06-22T02:58:34.303Z,388
2017-06-22T02:59:34.321Z,424
2017-06-22T03:00:34.334Z,464
2017-06-22T03:01:34.339Z,504
2017-06-22T03:02:34.338Z,548
2017-06-22T03:03:34.337Z,592
2017-06-22T03:04:34.298Z,640
2017-06-22T03:05:34.306Z,692
2017-06-22T03:06:34.305Z,748
2017-06-22T03:07:34.308Z,808
2017-06-22T03:08:34.308Z,872
2017-06-22T03:09:34.313Z,936
2017-06-22T03:10:34.312Z,1008
2017-06-22T03:11:34.311Z,1080
2017-06-22T03:12:34.310Z,1152
2017-06-22T03:13:34.309Z,1232
2017-06-22T03:14:34.311Z,1316
2017-06-22T03:15:34.341Z,1396
2017-06-22T03:16:34.341Z,1488
2017-06-22T03:17:34.307Z,1572
2017-06-22T03:18:34.278Z,1672
2017-06-22T03:19:34.268Z,1776
2017-06-22T03:20:34.311Z,1872
2017-06-22T03:21:34.345Z,1968
2017-06-22T03:22:34.326Z,2060
2017-06-22T03:23:34.264Z,2164
2017-06-22T03:24:34.346Z,2260
2017-06-22T03:25:34.349Z,2372
2017-06-22T03:26:34.354Z,2484
2017-06-22T03:27:34.256Z,2600
2017-06-22T03:28:34.300Z,2724
2017-06-22T03:29:34.254Z,2856
2017-06-22T03:30:34.356Z,2984
2017-06-22T03:31:34.254Z,3096
2017-06-22T03:32:34.291Z,3216
2017-06-22T03:33:34.252Z,3348
2017-06-22T03:34:34.252Z,3480
2017-06-22T03:35:34.350Z,3616
2017-06-22T03:36:34.347Z,3748
2017-06-22T03:37:34.353Z,3844
2017-06-22T03:38:34.458Z,3976
2017-06-22T03:39:34.359Z,4100
2017-06-22T03:40:34.349Z,4216
2017-06-22T03:41:34.363Z,4356
2017-06-22T03:42:34.367Z,4468
2017-06-22T03:43:34.336Z,4600
2017-06-22T03:44:34.359Z,4712
2017-06-22T03:45:34.254Z,4836
2017-06-22T03:46:34.256Z,4948
2017-06-22T03:47:34.252Z,5068
2017-06-22T03:48:34.255Z,5200
2017-06-22T03:49:34.340Z,5320
2017-06-22T03:50:34.249Z,5448
2017-06-22T03:51:34.245Z,5564
2017-06-22T03:52:34.222Z,5668
2017-06-22T03:53:34.261Z,5804
2017-06-22T03:54:34.301Z,5952
2017-06-22T03:55:34.222Z,6096
2017-06-22T03:56:34.258Z,6228
2017-06-22T03:57:34.251Z,6368
2017-06-22T03:58:34.232Z,6516
2017-06-22T03:59:34.249Z,6660
2017-06-22T04:00:34.361Z,6804
2017-06-22T04:01:34.222Z,6948
2017-06-22T04:02:34.260Z,7080
2017-06-22T04:03:34.249Z,7196
2017-06-22T04:04:34.364Z,7320
2017-06-22T04:05:34.306Z,7444
2017-06-22T04:06:34.282Z,7564
2017-06-22T04:07:34.277Z,7720
2017-06-22T04:08:34.348Z,7836
2017-06-22T04:09:34.285Z,7968
2017-06-22T04:10:34.371Z,8056
2017-06-22T04:11:34.279Z,8188
2017-06-22T04:12:34.372Z,8296
2017-06-22T04:13:34.370Z,8412
2017-06-22T04:14:34.382Z,8508
2017-06-22T04:15:34.351Z,8612
2017-06-22T04:16:34.356Z,8712
2017-06-22T04:17:34.355Z,8792
2017-06-22T04:18:34.357Z,8868
2017-06-22T04:19:34.357Z,8968
2017-06-22T04:20:34.359Z,9064
2017-06-22T04:21:34.358Z,9156
2017-06-22T04:22:34.383Z,9296
2017-06-22T04:23:34.362Z,9420
2017-06-22T04:24:34.359Z,9568
2017-06-22T04:25:34.363Z,9716
2017-06-22T04:26:34.346Z,9848
2017-06-22T04:27:34.349Z,9960
2017-06-22T04:28:34.351Z,10056
2017-06-22T04:29:34.352Z,10152
2017-06-22T04:30:34.350Z,10228
2017-06-22T04:31:34.355Z,10324
2017-06-22T04:32:34.356Z,10400
2017-06-22T04:33:34.352Z,10520
2017-06-22T04:34:34.354Z,10660
2017-06-22T04:35:34.354Z,10776
2017-06-22T04:36:34.389Z,10912
2017-06-22T04:37:34.385Z,11024
2017-06-22T04:38:34.389Z,11100
2017-06-22T04:39:34.389Z,11180
2017-06-22T04:40:34.393Z,11296
2017-06-22T04:41:34.361Z,11388
2017-06-22T04:42:34.347Z,11488
2017-06-22T04:43:34.391Z,11584
2017-06-22T04:44:34.368Z,11660
2017-06-22T04:45:34.413Z,11764
2017-06-22T04:46:34.379Z,11908
2017-06-22T04:47:34.371Z,11988
2017-06-22T04:48:34.374Z,12100
2017-06-22T04:49:34.374Z,12172
2017-06-22T04:50:34.379Z,12252
2017-06-22T04:51:34.402Z,12368
2017-06-22T04:52:34.377Z,12500
2017-06-22T04:53:34.376Z,12672
2017-06-22T04:54:34.380Z,12804
2017-06-22T04:55:34.394Z,12972
2017-06-22T04:56:34.404Z,13108
2017-06-22T04:57:34.384Z,13240
2017-06-22T04:58:34.313Z,13392
2017-06-22T04:59:34.395Z,13564
2017-06-22T05:00:34.318Z,13748
2017-06-22T05:01:34.321Z,13920
2017-06-22T05:02:34.324Z,14048
2017-06-22T05:03:34.377Z,14156
2017-06-22T05:04:34.386Z,14276
2017-06-22T05:05:34.313Z,14500
2017-06-22T05:06:34.388Z,14660
2017-06-22T05:07:34.383Z,14772
2017-06-22T05:08:34.387Z,14944
2017-06-22T05:09:34.386Z,15136
2017-06-22T05:10:34.385Z,15280
2017-06-22T05:11:34.384Z,15416
2017-06-22T05:12:34.387Z,15660
2017-06-22T05:13:34.385Z,15956
2017-06-22T05:14:34.387Z,16232
2017-06-22T05:15:34.390Z,16536
2017-06-22T05:16:34.304Z,16672
2017-06-22T05:17:34.320Z,16904
2017-06-22T05:18:34.317Z,17044
2017-06-22T05:20:34.311Z,17008
2017-06-22T05:21:34.309Z,17008
2017-06-22T05:22:34.298Z,17016
2017-06-22T05:23:34.304Z,17056
2017-06-22T05:24:34.367Z,17088
2017-06-22T05:25:34.346Z,17052
2017-06-22T05:26:34.337Z,16976
2017-06-22T05:27:34.414Z,16816
2017-06-22T05:28:34.417Z,16760
2017-06-22T05:29:34.422Z,16816
2017-06-22T05:30:34.413Z,16908
2017-06-22T05:31:34.328Z,16992
2017-06-22T05:32:34.334Z,17172
2017-06-22T05:33:34.419Z,17408
2017-06-22T05:34:34.414Z,17564
2017-06-22T05:35:34.402Z,17752
2017-06-22T05:36:34.343Z,17976
2017-06-22T05:37:34.336Z,18232
2017-06-22T05:38:34.378Z,18304
2017-06-22T05:39:34.339Z,18264
2017-06-22T05:40:34.429Z,18120
2017-06-22T05:41:34.441Z,18216
2017-06-22T05:42:34.427Z,18260
2017-06-22T05:43:34.337Z,18544
2017-06-22T05:44:34.430Z,24288
2017-06-22T05:45:34.341Z,37344
2017-06-22T05:46:34.421Z,35200
2017-06-22T05:47:34.426Z,44032
2017-06-22T05:48:34.422Z,43968
2017-06-22T05:49:34.342Z,44736
2017-06-22T05:50:34.359Z,45344
2017-06-22T05:51:34.345Z,44992
2017-06-22T05:52:34.437Z,45920
2017-06-22T05:53:34.387Z,46016
2017-06-22T05:54:34.337Z,47104
2017-06-22T05:55:34.430Z,48000
2017-06-22T05:56:34.409Z,49120
2017-06-22T05:57:34.413Z,50080
2017-06-22T05:58:34.425Z,51200
2017-06-22T05:59:34.413Z,52128
2017-06-22T06:00:34.414Z,52704
2017-06-22T06:01:34.416Z,53504
2017-06-22T06:02:34.415Z,54016
2017-06-22T06:03:34.417Z,50528
2017-06-22T06:04:34.423Z,54336
2017-06-22T06:05:34.417Z,55520
2017-06-22T06:06:34.417Z,54432
2017-06-22T06:07:34.417Z,56672
2017-06-22T06:08:34.415Z,57440
2017-06-22T06:09:34.419Z,58144
2017-06-22T06:10:34.419Z,59744
2017-06-22T06:11:34.418Z,59360
2017-06-22T06:12:34.419Z,59616
2017-06-22T06:13:34.421Z,60032
2017-06-22T06:14:34.415Z,59296
2017-06-22T06:15:34.422Z,61152
2017-06-22T06:16:34.358Z,61088
2017-06-22T06:17:34.400Z,60288
2017-06-22T06:18:34.359Z,58560
2017-06-22T06:19:34.447Z,58112
2017-06-22T06:20:34.438Z,56384
2017-06-22T06:21:34.421Z,59296
2017-06-22T06:22:34.401Z,60992
2017-06-22T06:23:34.448Z,62272
2017-06-22T06:24:34.453Z,62720
2017-06-22T06:25:34.354Z,61568
2017-06-22T06:26:34.420Z,62048
2017-06-22T06:27:34.359Z,61600
2017-06-22T06:28:34.447Z,62400
2017-06-22T06:29:34.435Z,63968
2017-06-22T06:30:34.391Z,65728
2017-06-22T06:31:34.453Z,67552
2017-06-22T06:32:34.426Z,68672
2017-06-22T06:33:34.409Z,66048
2017-06-22T06:34:34.430Z,64128
2017-06-22T06:35:34.459Z,64640
2017-06-22T06:36:34.369Z,65248
2017-06-22T06:37:34.499Z,63808
2017-06-22T06:38:34.463Z,64480
2017-06-22T06:39:34.460Z,63488
2017-06-22T06:40:34.456Z,64320
2017-06-22T06:41:34.457Z,66848
2017-06-22T06:42:34.371Z,65856
2017-06-22T06:43:34.448Z,65024
2017-06-22T06:44:34.462Z,64864
2017-06-22T06:45:34.457Z,65216
2017-06-22T06:46:34.459Z,65728
2017-06-22T06:47:34.459Z,67200
2017-06-22T06:48:34.441Z,69152
2017-06-22T06:49:34.380Z,71616
2017-06-22T06:50:34.470Z,73504
2017-06-22T06:51:34.422Z,74944
2017-06-22T06:52:34.451Z,76160
2017-06-22T06:53:34.380Z,77024
2017-06-22T06:54:34.423Z,77856
2017-06-22T06:55:34.467Z,64064
2017-06-22T06:56:34.468Z,71712
2017-06-22T06:57:34.378Z,76768
2017-06-22T06:58:34.469Z,77472
2017-06-22T06:59:34.473Z,78464
2017-06-22T07:00:34.442Z,76576
2017-06-22T07:01:34.386Z,79136
2017-06-22T07:02:34.479Z,80512
2017-06-22T07:03:34.474Z,79584
2017-06-22T07:04:34.463Z,81696
2017-06-22T07:05:34.444Z,81856
2017-06-22T07:06:34.446Z,81984
2017-06-22T07:07:34.429Z,82176
2017-06-22T07:08:34.503Z,82016
2017-06-22T07:09:34.468Z,80480
2017-06-22T07:10:34.380Z,85440
2017-06-22T07:11:34.479Z,87040
2017-06-22T07:12:34.442Z,72864
2017-06-22T07:13:34.428Z,89088
2017-06-22T07:14:34.478Z,87072
2017-06-22T07:15:34.471Z,83104
2017-06-22T07:16:34.468Z,88864
2017-06-22T07:17:34.426Z,90176
2017-06-22T07:18:34.474Z,81696
2017-06-22T07:19:34.449Z,75456
2017-06-22T07:20:34.448Z,80032
2017-06-22T07:22:34.481Z,80256
2017-06-22T07:23:34.476Z,79264
2017-06-22T07:24:34.392Z,83680
2017-06-22T07:25:34.591Z,89664
2017-06-22T07:26:34.454Z,88896
2017-06-22T07:27:34.489Z,86048
2017-06-22T07:28:34.437Z,82336
2017-06-22T07:29:34.399Z,78624
2017-06-22T07:30:34.481Z,68896
2017-06-22T07:31:34.483Z,70432
2017-06-22T07:32:34.487Z,78720
2017-06-22T07:33:34.404Z,82720
2017-06-22T07:34:34.476Z,81312
2017-06-22T07:35:34.490Z,78272
2017-06-22T07:36:34.472Z,82912
2017-06-22T07:37:34.467Z,92864
2017-06-22T07:38:34.466Z,94944
2017-06-22T07:39:34.465Z,91200
2017-06-22T07:40:34.473Z,91968
2017-06-22T07:41:34.468Z,91552
2017-06-22T07:42:34.469Z,78880
2017-06-22T07:43:34.471Z,74272
2017-06-22T07:44:34.466Z,80672
2017-06-22T07:45:34.469Z,76480
2017-06-22T07:46:34.469Z,77888
2017-06-22T07:47:34.470Z,80640
2017-06-22T07:48:34.470Z,87744
2017-06-22T07:49:34.468Z,90016
2017-06-22T07:50:34.501Z,89088
2017-06-22T07:51:34.472Z,91968
2017-06-22T07:52:34.472Z,91296
2017-06-22T07:53:34.474Z,94720
2017-06-22T07:54:34.474Z,86528
2017-06-22T07:55:34.478Z,93408
2017-06-22T07:56:34.503Z,92160
2017-06-22T07:57:34.497Z,94304
2017-06-22T07:58:34.496Z,81568
2017-06-22T07:59:34.411Z,92384
2017-06-22T08:00:34.413Z,99136
2017-06-22T08:01:34.496Z,104352
2017-06-22T08:02:34.456Z,105792
2017-06-22T08:03:34.415Z,105728
2017-06-22T08:04:34.495Z,104352
2017-06-22T08:05:34.503Z,103392
2017-06-22T08:06:34.480Z,102240
2017-06-22T08:07:34.484Z,102400
2017-06-22T08:08:34.481Z,104928
2017-06-22T08:09:34.486Z,105152
2017-06-22T08:10:34.480Z,107840
2017-06-22T08:11:34.483Z,107936
2017-06-22T08:12:34.484Z,107136
2017-06-22T08:13:34.489Z,107008
2017-06-22T08:14:34.564Z,108064
2017-06-22T08:15:34.487Z,106688
2017-06-22T08:16:34.481Z,106304
2017-06-22T08:17:34.392Z,105632
2017-06-22T08:18:34.398Z,106624
2017-06-22T08:19:34.483Z,106304
2017-06-22T08:20:34.395Z,106304
2017-06-22T08:21:34.486Z,106432
2017-06-22T08:22:34.400Z,107968
2017-06-22T08:23:34.486Z,107520
2017-06-22T08:24:34.487Z,108704
2017-06-22T08:25:34.375Z,107968
2017-06-22T08:26:34.395Z,107168
2017-06-22T08:27:34.482Z,106720
2017-06-22T08:28:34.482Z,104704
2017-06-22T08:29:34.482Z,106144
2017-06-22T08:30:34.479Z,106784
2017-06-22T08:31:34.484Z,104096
2017-06-22T08:32:34.487Z,106144
2017-06-22T08:33:34.479Z,105184
2017-06-22T08:34:34.491Z,107392
2017-06-22T08:35:34.491Z,109952
2017-06-22T08:36:34.490Z,111552
2017-06-22T08:37:34.494Z,113792
2017-06-22T08:38:34.518Z,114784
2017-06-22T08:39:34.515Z,113792
2017-06-22T08:40:34.515Z,109152
2017-06-22T08:41:34.437Z,106720
2017-06-22T08:42:34.515Z,104384
2017-06-22T08:43:34.434Z,106496
2017-06-22T08:44:34.440Z,107168
2017-06-22T08:45:34.523Z,107488
2017-06-22T08:46:34.432Z,110912
2017-06-22T08:47:34.522Z,116384
2017-06-22T08:48:34.508Z,114560
2017-06-22T08:49:34.506Z,115232
2017-06-22T08:50:34.505Z,114240
2017-06-22T08:51:34.505Z,109088
2017-06-22T08:52:34.506Z,108448
2017-06-22T08:53:34.508Z,108640
2017-06-22T08:54:34.510Z,109408
2017-06-22T08:55:34.433Z,113376
2017-06-22T08:56:34.511Z,114976
2017-06-22T08:57:34.391Z,113984
2017-06-22T08:58:34.430Z,112160
2017-06-22T08:59:34.460Z,113280
2017-06-22T09:00:34.417Z,110656
2017-06-22T09:01:34.456Z,111424
2017-06-22T09:02:34.467Z,114240
2017-06-22T09:03:34.454Z,113824
2017-06-22T09:04:34.413Z,114368
2017-06-22T09:05:34.419Z,116640
2017-06-22T09:06:34.519Z,117376
2017-06-22T09:07:34.535Z,119360
2017-06-22T09:08:34.444Z,120608
2017-06-22T09:09:34.457Z,120800
2017-06-22T09:10:34.453Z,120992
2017-06-22T09:11:34.534Z,120832
2017-06-22T09:12:34.533Z,123264
2017-06-22T09:13:34.451Z,124480
2017-06-22T09:14:34.460Z,125440
2017-06-22T09:15:34.496Z,127424
2017-06-22T09:16:34.451Z,128032
2017-06-22T09:17:34.438Z,127680
2017-06-22T09:18:34.521Z,127392
2017-06-22T09:19:34.525Z,127872
2017-06-22T09:20:34.526Z,126944
2017-06-22T09:21:34.525Z,129984
2017-06-22T09:22:34.525Z,128448
2017-06-22T09:23:34.527Z,128288
2017-06-22T09:24:34.531Z,123264
2017-06-22T09:25:34.531Z,121024
2017-06-22T09:26:34.529Z,123616
2017-06-22T09:27:34.555Z,126176
2017-06-22T09:28:34.547Z,129888
2017-06-22T09:29:34.549Z,133376
2017-06-22T09:30:34.547Z,133024
2017-06-22T09:31:34.550Z,134048
2017-06-22T09:32:34.549Z,131328
2017-06-22T09:33:34.652Z,131712
2017-06-22T09:34:34.550Z,132608
2017-06-22T09:35:34.509Z,131264
2017-06-22T09:36:34.471Z,131456
2017-06-22T09:37:34.467Z,134048
2017-06-22T09:38:34.558Z,135680
2017-06-22T09:39:34.471Z,135584
2017-06-22T09:40:34.553Z,136256
2017-06-22T09:41:34.559Z,134592
2017-06-22T09:42:34.469Z,132000
2017-06-22T09:43:34.476Z,131488
2017-06-22T09:45:34.558Z,132768
2017-06-22T09:46:34.475Z,133216
2017-06-22T09:47:34.560Z,133152
2017-06-22T09:48:34.480Z,133600
2017-06-22T09:49:34.473Z,132608
2017-06-22T09:50:34.479Z,133056
2017-06-22T09:51:34.538Z,132768
2017-06-22T09:52:34.558Z,131552
2017-06-22T09:53:34.570Z,132736
2017-06-22T09:54:34.536Z,132288
2017-06-22T09:55:34.576Z,132576
2017-06-22T09:56:34.538Z,132832
2017-06-22T09:57:34.534Z,132736
2017-06-22T09:58:34.550Z,133344
2017-06-22T09:59:34.539Z,131584
2017-06-22T10:00:34.530Z,133024
2017-06-22T10:01:34.533Z,135936
2017-06-22T10:02:34.533Z,136032
2017-06-22T10:03:34.532Z,134688
2017-06-22T10:04:34.537Z,132672
2017-06-22T10:05:34.486Z,130976
2017-06-22T10:06:34.537Z,129440
2017-06-22T10:07:34.488Z,127360
2017-06-22T10:09:34.576Z,125632
2017-06-22T10:10:34.512Z,125216
2017-06-22T10:11:34.570Z,127552
2017-06-22T10:12:34.566Z,128224
2017-06-22T10:13:34.560Z,128416
2017-06-22T10:14:34.480Z,129696
2017-06-22T10:15:34.495Z,129984
2017-06-22T10:16:34.490Z,128576
2017-06-22T10:17:34.543Z,128800
2017-06-22T10:18:34.571Z,131936
2017-06-22T10:19:34.542Z,134400
2017-06-22T10:20:34.544Z,135296
2017-06-22T10:21:34.548Z,133696
2017-06-22T10:22:34.545Z,133152
2017-06-22T10:23:34.548Z,133792
2017-06-22T10:24:34.545Z,137568
2017-06-22T10:25:34.552Z,137728
2017-06-22T10:26:34.548Z,139936
2017-06-22T10:27:34.547Z,139072
2017-06-22T10:28:34.652Z,137152
2017-06-22T10:29:34.549Z,137824
2017-06-22T10:30:34.550Z,134240
2017-06-22T10:31:34.549Z,132256
2017-06-22T10:32:34.553Z,128128
2017-06-22T10:33:34.552Z,127552
2017-06-22T10:34:34.554Z,129728
2017-06-22T10:35:34.557Z,129984
2017-06-22T10:36:34.555Z,129952
2017-06-22T10:37:34.529Z,131520
2017-06-22T10:38:34.538Z,128128
2017-06-22T10:39:34.481Z,126432
2017-06-22T10:40:34.578Z,123328
2017-06-22T10:41:34.546Z,124256
2017-06-22T10:42:34.588Z,131168
2017-06-22T10:43:34.479Z,135392
2017-06-22T10:44:34.534Z,138368
2017-06-22T10:45:34.483Z,133216
2017-06-22T10:46:34.534Z,133568
2017-06-22T10:47:34.537Z,133984
2017-06-22T10:48:34.486Z,135392
2017-06-22T10:49:34.495Z,129216
2017-06-22T10:50:34.577Z,127136
2017-06-22T10:51:34.493Z,132736
2017-06-22T10:52:34.550Z,132832
2017-06-22T10:53:34.538Z,136160
2017-06-22T10:54:34.587Z,136064
2017-06-22T10:55:34.732Z,135136
2017-06-22T10:56:34.545Z,139264
2017-06-22T10:57:34.667Z,131840
2017-06-22T10:58:34.568Z,136800
2017-06-22T10:59:34.567Z,135328
2017-06-22T11:00:34.566Z,139584
2017-06-22T11:01:34.566Z,141824
2017-06-22T11:02:34.565Z,141152
2017-06-22T11:03:34.565Z,142528
2017-06-22T11:04:34.571Z,131744
2017-06-22T11:05:34.577Z,140160
2017-06-22T11:06:34.568Z,136416
2017-06-22T11:07:34.585Z,142304
2017-06-22T11:08:34.582Z,140832
2017-06-22T11:09:34.585Z,138208
2017-06-22T11:10:34.581Z,134592
2017-06-22T11:11:34.593Z,143072
2017-06-22T11:12:34.579Z,140032
2017-06-22T11:13:34.584Z,136384
2017-06-22T11:14:34.583Z,137152
2017-06-22T11:15:34.592Z,135328
2017-06-22T11:16:34.591Z,135520
2017-06-22T11:17:34.611Z,136736
2017-06-22T11:18:34.531Z,141472
2017-06-22T11:19:34.591Z,144672
2017-06-22T11:20:34.613Z,144000
2017-06-22T11:21:34.528Z,143776
2017-06-22T11:22:34.616Z,140608
2017-06-22T11:23:34.577Z,136640
2017-06-22T11:24:34.643Z,136704
2017-06-22T11:25:34.522Z,138272
2017-06-22T11:26:34.552Z,136256
2017-06-22T11:27:34.591Z,137088
2017-06-22T11:28:34.595Z,137600
2017-06-22T11:29:34.608Z,142368
2017-06-22T11:30:34.596Z,141760
2017-06-22T11:31:34.598Z,144512
2017-06-22T11:32:34.595Z,141856
2017-06-22T11:33:34.596Z,141600
2017-06-22T11:34:34.597Z,141440
2017-06-22T11:35:34.512Z,142368
2017-06-22T11:36:34.596Z,145024
2017-06-22T11:37:34.599Z,147744
2017-06-22T11:38:34.602Z,143968
2017-06-22T11:39:34.598Z,150432
2017-06-22T11:40:34.629Z,155680
2017-06-22T11:41:34.601Z,155680
2017-06-22T11:42:34.599Z,159776
2017-06-22T11:43:34.520Z,155424
2017-06-22T11:44:34.600Z,153472
2017-06-22T11:45:34.602Z,150144
2017-06-22T11:46:34.602Z,140832
2017-06-22T11:47:34.606Z,138688
2017-06-22T11:48:34.601Z,53472
2017-06-22T11:49:34.506Z,53152
2017-06-22T11:50:34.491Z,97952
2017-06-22T11:51:34.619Z,64960
2017-06-22T11:52:34.490Z,70272
2017-06-22T11:53:34.523Z,47744
2017-06-22T11:54:34.568Z,48064
2017-06-22T11:55:34.550Z,141920
2017-06-22T11:56:34.571Z,100352
2017-06-22T11:57:34.554Z,140640
2017-06-22T11:58:34.495Z,56000
2017-06-22T11:59:34.610Z,44416
2017-06-22T12:00:34.567Z,59616
2017-06-22T12:01:34.494Z,66240
2017-06-22T12:02:34.627Z,152128
2017-06-22T12:03:34.536Z,147424
2017-06-22T12:04:34.538Z,153472
2017-06-22T12:05:34.519Z,138784
2017-06-22T12:06:34.569Z,142176
2017-06-22T12:07:34.672Z,55264
2017-06-22T12:08:34.554Z,45952
2017-06-22T12:09:34.636Z,42336
2017-06-22T12:10:34.557Z,39488
2017-06-22T12:11:34.628Z,40000
2017-06-22T12:12:34.614Z,43232
2017-06-22T12:13:34.641Z,110048
2017-06-22T12:14:34.636Z,43808
2017-06-22T12:15:34.633Z,38272
2017-06-22T12:16:34.557Z,35488
2017-06-22T12:17:34.647Z,36096
2017-06-22T12:18:34.610Z,40064
2017-06-22T12:19:34.609Z,47968
2017-06-22T12:20:34.610Z,125280
2017-06-22T12:21:34.612Z,52864
2017-06-22T12:22:34.610Z,49344
2017-06-22T12:23:34.612Z,49760
2017-06-22T12:24:34.612Z,53888
2017-06-22T12:25:34.611Z,52896
2017-06-22T12:26:34.611Z,50944
2017-06-22T12:27:34.615Z,48640
2017-06-22T12:28:34.614Z,46208
2017-06-22T12:29:34.616Z,45184
2017-06-22T12:30:34.614Z,44864
2017-06-22T12:31:34.617Z,45440
2017-06-22T12:32:34.617Z,49248
2017-06-22T12:33:34.612Z,56576
2017-06-22T12:34:34.619Z,62016
2017-06-22T12:35:34.617Z,59872
2017-06-22T12:36:34.621Z,132192
2017-06-22T12:37:34.622Z,101664
2017-06-22T12:38:34.635Z,126784
2017-06-22T12:39:34.630Z,45792
2017-06-22T12:40:34.630Z,35072
2017-06-22T12:41:34.635Z,32160
2017-06-22T12:42:34.636Z,32544
2017-06-22T12:43:34.636Z,34944
2017-06-22T12:44:34.559Z,38336
2017-06-22T12:45:34.634Z,41600
2017-06-22T12:46:34.636Z,110560
2017-06-22T12:47:34.639Z,119616
2017-06-22T12:48:34.626Z,74368
2017-06-22T12:49:34.624Z,56672
2017-06-22T12:50:34.625Z,56160
2017-06-22T12:51:34.633Z,61056
2017-06-22T12:52:34.727Z,113760
2017-06-22T12:53:34.677Z,59392
2017-06-22T12:54:34.631Z,51488
2017-06-22T12:55:34.629Z,49248
2017-06-22T12:56:34.628Z,49056
2017-06-22T12:57:34.636Z,47968
2017-06-22T12:58:34.660Z,43648
2017-06-22T12:59:34.659Z,38240
2017-06-22T13:00:34.666Z,30624
2017-06-22T13:02:34.625Z,20000
2017-06-22T13:03:34.600Z,16284
2017-06-22T13:04:34.671Z,14128
2017-06-22T13:05:34.626Z,12448
2017-06-22T13:06:34.667Z,11380
2017-06-22T13:07:34.585Z,10560
2017-06-22T13:08:34.629Z,10124
2017-06-22T13:09:34.665Z,9796
2017-06-22T13:10:34.664Z,10252
2017-06-22T13:11:34.663Z,13684
2017-06-22T13:12:34.671Z,21184
2017-06-22T13:13:34.672Z,24512
2017-06-22T13:14:34.669Z,27680